Time;durP1;ratioP1;P1;durP2;ratioP2;P2;SDS_P1;SDS_P2;PMS_P1;PMS_P2;Temp;Humidity;BMP_temperature;BMP_pressure;BME280_temperature;BME280_humidity;BME280_pressure;Samples;Min_cycle;Max_cycle;Signal;HPM_P1;HPM_P2
2021/12/07 00:00:38;;;;;;;28.80;15.27;;;-0.80;99.90;;;;;;8493626;27;20180;-65
2021/12/07 00:04:40;;;;;;;22.77;14.13;;;-0.80;99.90;;;;;;8492732;27;20205;-64
2021/12/07 00:08:41;;;;;;;26.67;15.20;;;-0.70;99.90;;;;;;8470066;27;20194;-64
2021/12/07 00:12:45;;;;;;;29.03;14.57;;;-0.70;99.90;;;;;;8489333;27;20169;-65
2021/12/07 00:16:46;;;;;;;26.57;14.50;;;-0.70;99.90;;;;;;8469883;27;20286;-66
2021/12/07 00:20:47;;;;;;;27.20;14.43;;;-0.70;99.90;;;;;;8469238;27;20214;-65
2021/12/07 00:24:48;;;;;;;23.33;13.73;;;-0.70;99.90;;;;;;8503648;27;20209;-66
2021/12/07 00:28:50;;;;;;;23.83;13.30;;;-0.70;99.90;;;;;;8469328;27;20182;-65
2021/12/07 00:33:07;;;;;;;24.17;14.33;;;-0.70;99.90;;;;;;8521175;27;20192;-65
2021/12/07 00:37:08;;;;;;;22.40;13.03;;;-0.70;99.90;;;;;;8494010;27;20209;-67
2021/12/07 00:41:10;;;;;;;29.27;14.60;;;-0.70;99.90;;;;;;8470023;27;20258;-65
2021/12/07 00:45:13;;;;;;;30.23;16.80;;;-0.70;99.90;;;;;;8488003;27;20177;-65
2021/12/07 00:49:15;;;;;;;32.33;17.77;;;-0.60;99.90;;;;;;8488484;27;20184;-66
2021/12/07 00:53:17;;;;;;;30.47;18.07;;;-0.70;99.90;;;;;;8469188;27;20214;-67
2021/12/07 00:57:20;;;;;;;33.63;18.27;;;-0.70;99.90;;;;;;8471849;27;20301;-65
2021/12/07 01:01:22;;;;;;;30.57;17.07;;;-0.70;99.90;;;;;;8486655;27;20177;-65
2021/12/07 01:05:29;;;;;;;27.43;16.23;;;-0.70;99.90;;;;;;8486827;27;20188;-68
2021/12/07 01:09:40;;;;;;;29.07;15.97;;;-0.70;99.90;;;;;;8491465;27;20188;-66
2021/12/07 01:26:39;;;;;;;27.57;16.80;;;-0.60;99.90;;;;;;8491684;27;20242;-66
2021/12/07 01:30:50;;;;;;;37.00;19.00;;;-0.60;99.90;;;;;;8482432;27;20177;-68
2021/12/07 01:59:37;;;;;;;37.17;19.10;;;-0.50;99.90;;;;;;8508544;27;20191;-66
2021/12/07 02:03:39;;;;;;;42.43;20.93;;;-0.50;99.90;;;;;;8477567;27;20175;-66
2021/12/07 02:07:40;;;;;;;35.47;20.40;;;-0.50;99.90;;;;;;8485984;27;20193;-67
2021/12/07 02:11:47;;;;;;;41.87;22.43;;;-0.40;99.90;;;;;;8478536;27;20306;-67
2021/12/07 02:15:49;;;;;;;40.00;20.27;;;-0.50;99.90;;;;;;8494686;27;20542;-67
2021/12/07 02:19:50;;;;;;;31.90;17.30;;;-0.50;99.90;;;;;;8506706;27;20181;-67
2021/12/07 02:23:53;;;;;;;36.50;19.67;;;-0.50;99.90;;;;;;8479568;27;20234;-67
2021/12/07 02:27:54;;;;;;;33.70;19.30;;;-0.50;99.90;;;;;;8472335;27;20219;-66
2021/12/07 02:31:57;;;;;;;29.93;17.67;;;-0.50;99.90;;;;;;8493239;27;20257;-68
2021/12/07 02:35:58;;;;;;;33.87;19.13;;;-0.60;99.90;;;;;;8489390;27;20212;-67
2021/12/07 02:40:00;;;;;;;34.93;18.87;;;-0.50;99.90;;;;;;8491047;27;20216;-66
2021/12/07 02:44:01;;;;;;;39.03;20.73;;;-0.50;99.90;;;;;;8491172;27;20188;-66
2021/12/07 02:48:02;;;;;;;35.07;20.17;;;-0.50;99.90;;;;;;8459922;27;20222;-67
2021/12/07 02:52:05;;;;;;;35.03;18.67;;;-0.50;99.90;;;;;;8487326;27;20276;-67
2021/12/07 02:56:07;;;;;;;37.90;19.83;;;-0.50;99.90;;;;;;8471130;27;20208;-66
2021/12/07 03:00:16;;;;;;;35.07;19.63;;;-0.50;99.90;;;;;;8493815;27;20215;-67
2021/12/07 03:04:23;;;;;;;45.57;25.03;;;-0.50;99.90;;;;;;8466106;28;20184;-66
2021/12/07 03:29:54;;;;;;;44.67;22.60;;;-0.60;99.90;;;;;;8494262;27;20199;-70
2021/12/07 03:33:56;;;;;;;41.27;22.47;;;-0.70;99.90;;;;;;8465284;28;20197;-66
2021/12/07 03:37:57;;;;;;;37.07;20.43;;;-0.60;99.90;;;;;;8432235;27;20185;-67
2021/12/07 03:41:58;;;;;;;37.10;20.43;;;-0.60;99.90;;;;;;8468989;28;20185;-67
2021/12/07 03:46:00;;;;;;;35.90;19.03;;;-0.60;99.90;;;;;;8464235;28;20183;-68
2021/12/07 03:50:01;;;;;;;37.67;20.23;;;-0.60;99.90;;;;;;8465063;28;20282;-67
2021/12/07 03:54:03;;;;;;;47.23;21.27;;;-0.60;99.90;;;;;;8470524;27;20234;-66
2021/12/07 03:58:05;;;;;;;37.43;20.00;;;-0.50;99.90;;;;;;8473090;27;20190;-66
2021/12/07 04:02:07;;;;;;;45.17;23.07;;;-0.50;99.90;;;;;;8494927;27;20174;-67
2021/12/07 04:06:08;;;;;;;41.23;22.00;;;-0.50;99.90;;;;;;8469728;27;20195;-67
2021/12/07 04:10:11;;;;;;;39.10;20.80;;;-0.50;99.90;;;;;;8470238;27;20243;-65
2021/12/07 04:14:12;;;;;;;43.80;23.50;;;-0.50;99.90;;;;;;8469246;27;22168;-65
2021/12/07 04:18:13;;;;;;;45.37;23.23;;;-0.50;99.90;;;;;;8468920;27;20210;-66
2021/12/07 04:22:14;;;;;;;43.40;22.87;;;-0.50;99.90;;;;;;8471565;27;20213;-65
2021/12/07 04:26:15;;;;;;;55.90;32.17;;;-0.50;99.90;;;;;;8477810;27;20199;-67
2021/12/07 04:30:20;;;;;;;60.30;33.20;;;-0.50;99.90;;;;;;8496662;27;20187;-65
2021/12/07 04:34:20;;;;;;;49.80;24.17;;;-0.50;99.90;;;;;;8516776;27;20246;-66
2021/12/07 04:38:22;;;;;;;53.23;28.77;;;-0.50;99.90;;;;;;8488087;27;20180;-65
2021/12/07 04:42:25;;;;;;;64.27;32.80;;;-0.50;99.90;;;;;;8467834;27;20185;-66
2021/12/07 04:46:42;;;;;;;61.13;26.27;;;-0.50;99.90;;;;;;8469453;27;20271;-65
2021/12/07 04:59:23;;;;;;;73.27;30.43;;;-0.50;99.90;;;;;;8495242;27;20214;-67
2021/12/07 05:03:26;;;;;;;76.53;39.07;;;-0.50;99.90;;;;;;8468956;27;20185;-67
2021/12/07 05:07:38;;;;;;;108.23;44.77;;;-0.50;99.90;;;;;;8486967;27;20211;-67
2021/12/07 05:11:51;;;;;;;101.03;36.07;;;-0.50;99.90;;;;;;8468885;27;20186;-66
2021/12/07 05:24:19;;;;;;;66.60;29.23;;;-0.50;99.90;;;;;;8504549;27;20236;-67
2021/12/07 05:41:18;;;;;;;83.63;35.07;;;-0.50;99.90;;;;;;8458992;27;20212;-68
2021/12/07 05:45:23;;;;;;;77.60;39.30;;;-0.50;99.90;;;;;;8467712;27;20188;-66
2021/12/07 05:49:24;;;;;;;103.80;34.77;;;-0.50;99.90;;;;;;8467467;27;20637;-66
2021/12/07 05:53:25;;;;;;;71.93;28.43;;;-0.50;99.90;;;;;;8469922;27;20187;-65
2021/12/07 05:57:26;;;;;;;70.27;29.83;;;-0.50;99.90;;;;;;8471343;27;20200;-67
2021/12/07 06:01:27;;;;;;;76.70;36.40;;;-0.50;99.90;;;;;;8475996;27;20168;-66
2021/12/07 06:05:29;;;;;;;76.17;30.03;;;-0.40;99.90;;;;;;8465965;27;20176;-68
2021/12/07 06:09:31;;;;;;;61.23;27.47;;;-0.40;99.90;;;;;;8466505;27;20182;-66
2021/12/07 06:13:32;;;;;;;57.37;25.67;;;-0.50;99.90;;;;;;8467237;27;20175;-66
2021/12/07 06:17:33;;;;;;;60.07;25.77;;;-0.40;99.90;;;;;;8465763;27;20304;-66
2021/12/07 06:21:33;;;;;;;60.17;26.57;;;-0.40;99.90;;;;;;8484005;27;20187;-65
2021/12/07 06:25:34;;;;;;;56.03;25.07;;;-0.50;99.90;;;;;;8494195;27;20189;-66
2021/12/07 06:29:35;;;;;;;50.73;24.43;;;-0.40;99.90;;;;;;8492550;27;20179;-67
2021/12/07 06:33:36;;;;;;;51.90;24.00;;;-0.40;99.90;;;;;;8500585;27;20202;-66
2021/12/07 06:37:37;;;;;;;56.77;25.27;;;-0.40;99.90;;;;;;8486262;27;20200;-66
2021/12/07 06:41:39;;;;;;;46.90;22.10;;;-0.40;99.90;;;;;;8463730;27;20208;-65
2021/12/07 06:45:40;;;;;;;44.80;22.60;;;-0.50;99.90;;;;;;8459599;27;20200;-65
2021/12/07 06:49:42;;;;;;;44.53;20.23;;;-0.50;99.90;;;;;;8463650;28;20185;-66
2021/12/07 06:53:42;;;;;;;45.93;23.90;;;-0.50;99.90;;;;;;8492183;27;20189;-66
2021/12/07 06:57:44;;;;;;;50.17;23.00;;;-0.50;99.90;;;;;;8464866;27;20223;-66
2021/12/07 07:01:45;;;;;;;47.13;22.50;;;-0.50;99.90;;;;;;8484195;27;20177;-66
2021/12/07 07:05:46;;;;;;;49.43;23.73;;;-0.50;99.90;;;;;;8484245;28;20184;-69
2021/12/07 07:09:47;;;;;;;44.93;22.73;;;-0.50;99.90;;;;;;8467973;28;20600;-70
2021/12/07 07:13:48;;;;;;;50.67;22.43;;;-0.40;99.90;;;;;;8484701;28;20184;-69
2021/12/07 07:17:49;;;;;;;45.10;20.90;;;-0.40;99.90;;;;;;8466534;28;20325;-68
2021/12/07 07:21:51;;;;;;;39.83;21.33;;;-0.30;99.90;;;;;;8466310;28;20209;-69
2021/12/07 07:25:55;;;;;;;44.20;21.93;;;-0.30;99.90;;;;;;8481619;27;20187;-68
2021/12/07 07:29:56;;;;;;;62.13;24.83;;;-0.30;99.90;;;;;;8509796;27;20181;-68
2021/12/07 07:33:57;;;;;;;54.97;24.57;;;-0.20;99.90;;;;;;8506698;27;20207;-69
2021/12/07 07:38:00;;;;;;;55.77;25.40;;;-0.20;99.90;;;;;;8491351;27;20360;-69
2021/12/07 07:42:01;;;;;;;59.87;26.50;;;-0.20;99.90;;;;;;8492991;27;20179;-68
2021/12/07 07:46:03;;;;;;;58.60;28.30;;;-0.20;99.90;;;;;;8478567;27;20185;-69
2021/12/07 07:50:05;;;;;;;49.30;22.63;;;-0.10;99.90;;;;;;8469566;27;20193;-68
2021/12/07 07:54:06;;;;;;;45.10;21.53;;;-0.10;99.90;;;;;;8468100;27;20254;-70
2021/12/07 07:58:08;;;;;;;48.87;22.67;;;0.00;99.90;;;;;;8487482;27;20255;-69
2021/12/07 08:02:09;;;;;;;49.40;23.80;;;0.00;99.90;;;;;;8476838;27;20264;-69
2021/12/07 08:06:09;;;;;;;59.27;26.60;;;0.00;99.90;;;;;;8491320;27;20189;-69
2021/12/07 08:10:10;;;;;;;59.97;30.33;;;0.00;99.90;;;;;;8504880;27;20193;-69
2021/12/07 08:14:11;;;;;;;44.50;21.77;;;0.00;99.90;;;;;;8524318;27;20268;-69
2021/12/07 08:18:13;;;;;;;47.73;22.23;;;0.10;99.90;;;;;;8505931;27;20185;-69
2021/12/07 08:22:14;;;;;;;46.33;22.33;;;0.10;99.90;;;;;;8474943;27;20286;-69
2021/12/07 08:26:18;;;;;;;45.97;21.53;;;0.20;99.90;;;;;;8508609;27;20194;-69
2021/12/07 08:30:19;;;;;;;43.10;21.80;;;0.20;99.90;;;;;;8483045;27;20278;-70
2021/12/07 08:34:20;;;;;;;46.67;23.20;;;0.20;99.90;;;;;;8521175;27;20203;-70
2021/12/07 08:38:22;;;;;;;44.07;21.10;;;0.10;99.90;;;;;;8487941;27;20186;-69
2021/12/07 08:42:23;;;;;;;52.67;25.10;;;0.20;99.90;;;;;;8488687;27;20266;-69
2021/12/07 08:46:25;;;;;;;56.90;27.10;;;0.30;99.90;;;;;;8506815;27;20194;-69
2021/12/07 08:50:28;;;;;;;55.07;25.43;;;0.30;99.90;;;;;;8477785;27;20190;-69
2021/12/07 09:02:51;;;;;;;47.23;23.23;;;0.50;99.90;;;;;;8494051;27;20213;-69
2021/12/07 09:06:52;;;;;;;46.83;22.97;;;0.50;99.90;;;;;;8500941;27;20265;-69
2021/12/07 09:10:54;;;;;;;48.67;22.77;;;0.50;99.90;;;;;;8470361;27;20187;-70
2021/12/07 09:14:55;;;;;;;47.43;23.10;;;0.50;99.90;;;;;;8485574;27;20283;-68
2021/12/07 09:18:56;;;;;;;52.17;23.63;;;0.50;99.90;;;;;;8473668;27;20206;-69
2021/12/07 09:22:57;;;;;;;46.87;20.90;;;0.50;99.90;;;;;;8476046;27;20198;-69
2021/12/07 09:26:59;;;;;;;47.53;22.50;;;0.50;99.90;;;;;;8483685;27;20267;-69
2021/12/07 09:31:00;;;;;;;45.00;22.23;;;0.50;99.90;;;;;;8464528;27;20198;-68
2021/12/07 09:35:04;;;;;;;43.60;20.30;;;0.50;99.90;;;;;;8471951;27;20246;-70
2021/12/07 09:39:07;;;;;;;49.30;22.07;;;0.50;99.90;;;;;;8477654;27;20259;-69
2021/12/07 09:43:09;;;;;;;50.27;22.83;;;0.50;99.90;;;;;;8480113;27;20183;-69
2021/12/07 09:47:10;;;;;;;49.13;23.33;;;0.60;99.90;;;;;;8500045;27;20265;-69
2021/12/07 09:51:13;;;;;;;44.90;22.77;;;0.60;99.90;;;;;;8473766;27;20206;-69
2021/12/07 09:55:15;;;;;;;48.63;23.13;;;0.60;99.90;;;;;;8458316;27;20217;-69
2021/12/07 09:59:16;;;;;;;43.83;22.07;;;0.60;99.90;;;;;;8488732;27;20187;-69
2021/12/07 10:03:18;;;;;;;48.27;22.40;;;0.50;99.90;;;;;;8494571;27;20228;-70
2021/12/07 10:07:19;;;;;;;48.80;23.90;;;0.60;99.90;;;;;;8481035;27;20192;-68
2021/12/07 10:11:20;;;;;;;46.83;23.23;;;0.70;99.90;;;;;;8468977;27;20183;-69
2021/12/07 10:15:22;;;;;;;50.80;24.57;;;0.70;99.90;;;;;;8467212;27;20301;-68
2021/12/07 10:19:29;;;;;;;45.23;23.17;;;0.60;99.90;;;;;;8468255;27;20175;-69
2021/12/07 10:23:49;;;;;;;50.80;24.60;;;0.70;99.90;;;;;;8494276;27;20210;-69
2021/12/07 10:27:51;;;;;;;47.40;23.53;;;0.70;99.90;;;;;;8482605;27;20182;-69
2021/12/07 10:32:00;;;;;;;50.37;23.60;;;0.70;99.90;;;;;;8476245;27;20198;-70
2021/12/07 10:36:20;;;;;;;45.33;22.57;;;0.80;99.90;;;;;;8485018;27;20214;-68
2021/12/07 10:40:21;;;;;;;46.50;23.07;;;1.20;99.90;;;;;;8467758;27;20172;-69
2021/12/07 10:44:31;;;;;;;47.40;23.43;;;1.50;99.90;;;;;;8474524;27;20175;-69
2021/12/07 10:48:32;;;;;;;47.27;22.47;;;1.60;99.90;;;;;;8492300;27;20255;-69
2021/12/07 10:52:42;;;;;;;50.77;25.67;;;1.70;99.90;;;;;;8483294;27;20266;-70
2021/12/07 10:56:45;;;;;;;65.50;32.63;;;1.60;99.90;;;;;;8476888;27;20207;-69
2021/12/07 11:00:50;;;;;;;44.40;25.97;;;1.70;99.90;;;;;;8491398;27;20276;-69
2021/12/07 11:04:52;;;;;;;51.33;23.53;;;1.60;99.90;;;;;;8483456;27;20186;-70
2021/12/07 11:08:57;;;;;;;43.13;23.60;;;1.60;99.90;;;;;;8476345;27;20190;-70
2021/12/07 11:13:16;;;;;;;77.63;50.63;;;1.70;99.90;;;;;;8492493;27;20179;-69
2021/12/07 11:17:19;;;;;;;71.90;34.77;;;2.00;99.90;;;;;;8474098;27;20218;-69
2021/12/07 11:21:20;;;;;;;53.87;25.07;;;2.10;99.90;;;;;;8493391;27;20240;-71
2021/12/07 11:25:53;;;;;;;51.17;23.73;;;2.00;99.90;;;;;;8505662;27;20285;-68
2021/12/07 11:29:55;;;;;;;69.83;30.33;;;1.90;99.90;;;;;;8500647;27;20239;-68
2021/12/07 11:34:15;;;;;;;57.63;25.30;;;1.70;99.90;;;;;;8487759;27;20207;-70
2021/12/07 11:38:29;;;;;;;60.30;27.10;;;1.70;99.90;;;;;;8473660;27;20190;-70
2021/12/07 11:42:36;;;;;;;54.30;27.27;;;1.60;99.90;;;;;;8472063;27;20179;-69
2021/12/07 11:46:45;;;;;;;42.20;20.43;;;1.50;99.90;;;;;;8468606;27;20187;-70
2021/12/07 11:50:50;;;;;;;49.23;21.77;;;1.30;99.90;;;;;;8490092;27;20190;-70
2021/12/07 11:54:51;;;;;;;47.80;22.10;;;1.30;99.90;;;;;;8476061;27;20214;-72
2021/12/07 11:58:52;;;;;;;47.40;20.97;;;1.30;99.90;;;;;;8497846;27;20182;-71
2021/12/07 12:02:53;;;;;;;50.03;20.80;;;1.20;99.90;;;;;;8470460;27;20240;-69
2021/12/07 12:06:56;;;;;;;48.37;24.37;;;1.30;99.90;;;;;;8479557;27;20211;-69
2021/12/07 12:11:03;;;;;;;71.70;37.63;;;1.30;99.90;;;;;;8476074;27;20192;-70
2021/12/07 12:15:23;;;;;;;47.00;23.40;;;1.40;99.90;;;;;;8505689;27;20212;-69
2021/12/07 12:20:05;;;;;;;55.67;29.07;;;1.50;99.90;;;;;;8503965;27;20194;-68
2021/12/07 12:24:18;;;;;;;41.93;22.13;;;1.50;99.90;;;;;;8470355;27;20235;-69
2021/12/07 12:28:33;;;;;;;58.10;29.67;;;1.40;99.90;;;;;;8491303;27;20182;-70
2021/12/07 12:32:36;;;;;;;53.80;24.53;;;1.40;99.90;;;;;;8475096;27;20260;-69
2021/12/07 12:36:37;;;;;;;56.63;25.30;;;1.30;99.90;;;;;;8448458;28;20271;-68
2021/12/07 12:40:38;;;;;;;52.30;22.47;;;1.10;99.90;;;;;;8454001;28;20219;-71
2021/12/07 12:44:39;;;;;;;56.00;23.43;;;1.00;99.90;;;;;;8471216;27;20194;-69
2021/12/07 12:48:56;;;;;;;43.90;21.17;;;0.90;99.90;;;;;;8479594;27;20265;-71
2021/12/07 12:53:10;;;;;;;41.70;19.97;;;0.90;99.90;;;;;;8481761;27;20208;-70
2021/12/07 12:57:16;;;;;;;43.57;19.77;;;0.90;99.90;;;;;;8467171;27;20379;-71
2021/12/07 13:01:28;;;;;;;44.17;20.87;;;0.80;99.90;;;;;;8501067;27;20182;-70
2021/12/07 13:05:34;;;;;;;43.00;18.43;;;0.70;99.90;;;;;;8469940;27;20225;-70
2021/12/07 13:09:46;;;;;;;45.93;20.63;;;0.80;99.90;;;;;;8489001;27;20188;-70
2021/12/07 13:13:48;;;;;;;31.37;17.10;;;0.80;99.90;;;;;;8469917;27;20183;-70
2021/12/07 13:17:49;;;;;;;34.10;16.13;;;0.80;99.90;;;;;;8487234;27;20210;-73
2021/12/07 13:21:50;;;;;;;31.37;16.30;;;0.80;99.90;;;;;;8468610;27;20182;-70
2021/12/07 13:25:52;;;;;;;29.97;15.40;;;0.80;99.90;;;;;;8477912;27;20187;-70
2021/12/07 13:29:53;;;;;;;33.60;16.20;;;0.70;99.90;;;;;;8498009;27;20216;-70
2021/12/07 13:33:58;;;;;;;33.43;16.10;;;0.70;99.90;;;;;;8502137;27;20247;-71
2021/12/07 13:38:17;;;;;;;39.17;18.37;;;0.60;99.90;;;;;;8485091;27;20206;-69
2021/12/07 13:42:17;;;;;;;52.73;26.10;;;0.50;99.90;;;;;;8482360;27;20250;-69
2021/12/07 13:46:18;;;;;;;98.23;38.17;;;0.50;99.90;;;;;;8483124;27;20213;-73
2021/12/07 13:50:25;;;;;;;64.93;26.57;;;0.50;99.90;;;;;;8502945;27;20185;-73
2021/12/07 13:54:26;;;;;;;42.70;20.73;;;0.50;99.90;;;;;;8476006;27;20194;-70
2021/12/07 13:58:31;;;;;;;68.63;28.87;;;0.50;99.90;;;;;;8479453;27;20190;-70
2021/12/07 14:02:33;;;;;;;72.23;30.03;;;0.40;99.90;;;;;;8485158;27;20187;-69
2021/12/07 14:06:35;;;;;;;62.63;27.93;;;0.40;99.90;;;;;;8467383;27;20195;-71
2021/12/07 14:10:41;;;;;;;44.37;21.77;;;0.40;99.90;;;;;;8468149;27;20192;-68
2021/12/07 14:14:42;;;;;;;56.43;25.57;;;0.30;99.90;;;;;;8465344;27;20314;-70
2021/12/07 14:18:45;;;;;;;41.63;21.43;;;0.20;99.90;;;;;;8468145;27;20271;-69
2021/12/07 14:22:46;;;;;;;47.33;24.37;;;0.20;99.90;;;;;;8483148;27;20297;-70
2021/12/07 14:26:48;;;;;;;59.80;25.63;;;0.20;99.90;;;;;;8463333;27;20219;-70
2021/12/07 14:30:49;;;;;;;84.50;34.37;;;0.10;99.90;;;;;;8488924;27;20191;-69
2021/12/07 14:34:50;;;;;;;55.67;28.63;;;0.10;99.90;;;;;;8489524;27;20215;-69
2021/12/07 14:38:54;;;;;;;52.83;26.13;;;0.00;99.90;;;;;;8484095;27;20174;-70
2021/12/07 14:42:55;;;;;;;41.83;18.17;;;0.00;99.90;;;;;;8478953;27;20190;-69
2021/12/07 14:47:00;;;;;;;83.27;30.03;;;0.00;99.90;;;;;;8466974;27;20185;-70
2021/12/07 14:51:09;;;;;;;59.43;27.30;;;0.00;99.90;;;;;;8492139;27;20223;-69
2021/12/07 14:55:11;;;;;;;57.83;23.70;;;-0.10;99.90;;;;;;8475439;27;20221;-70
2021/12/07 14:59:18;;;;;;;64.10;27.03;;;-0.10;99.90;;;;;;8469594;27;20190;-69
2021/12/07 15:03:35;;;;;;;73.83;29.70;;;-0.10;99.90;;;;;;8456108;27;20217;-68
2021/12/07 15:07:37;;;;;;;50.97;23.50;;;-0.10;99.90;;;;;;8475637;27;20212;-69
2021/12/07 15:11:44;;;;;;;58.13;25.13;;;-0.10;99.90;;;;;;8475465;27;20185;-68
2021/12/07 15:15:45;;;;;;;45.47;20.53;;;-0.20;99.90;;;;;;8516837;27;20234;-68
2021/12/07 15:19:46;;;;;;;47.07;22.00;;;-0.20;99.90;;;;;;8486968;27;20192;-66
2021/12/07 15:23:49;;;;;;;48.57;20.80;;;-0.20;99.90;;;;;;8463051;28;20244;-65
2021/12/07 15:27:52;;;;;;;43.40;20.23;;;-0.20;99.90;;;;;;8480974;27;20194;-65
2021/12/07 15:32:02;;;;;;;42.30;22.67;;;-0.20;99.90;;;;;;8460938;28;20278;-66
2021/12/07 15:36:19;;;;;;;46.07;21.00;;;-0.30;99.90;;;;;;8481893;28;20224;-66
2021/12/07 15:40:21;;;;;;;42.90;20.17;;;-0.30;99.90;;;;;;8463259;28;20191;-65
2021/12/07 15:44:26;;;;;;;43.97;20.63;;;-0.30;99.90;;;;;;8503905;27;20186;-67
2021/12/07 15:48:29;;;;;;;42.70;20.17;;;-0.30;99.90;;;;;;8490421;27;20194;-66
2021/12/07 15:52:37;;;;;;;50.90;21.30;;;-0.30;99.90;;;;;;8522362;27;20213;-65
2021/12/07 15:56:37;;;;;;;39.80;18.83;;;-0.40;99.90;;;;;;8468369;27;20216;-66
2021/12/07 16:00:45;;;;;;;49.93;22.67;;;-0.40;99.90;;;;;;8486168;27;20192;-66
2021/12/07 16:04:45;;;;;;;43.97;23.03;;;-0.40;99.90;;;;;;8469147;27;20197;-66
2021/12/07 16:08:46;;;;;;;38.13;21.43;;;-0.40;99.90;;;;;;8470368;27;20186;-67
2021/12/07 16:13:14;;;;;;;41.80;20.30;;;-0.40;99.90;;;;;;8470235;27;20192;-66
2021/12/07 16:17:20;;;;;;;56.97;25.93;;;-0.40;99.90;;;;;;8487227;27;20273;-67
2021/12/07 16:21:22;;;;;;;45.13;19.80;;;-0.40;99.90;;;;;;8486720;27;20192;-65
2021/12/07 16:25:23;;;;;;;44.23;20.37;;;-0.40;99.90;;;;;;8488301;27;20201;-66
2021/12/07 16:29:25;;;;;;;37.93;18.30;;;-0.40;99.90;;;;;;8480641;27;20235;-66
2021/12/07 16:33:26;;;;;;;36.60;17.30;;;-0.40;99.90;;;;;;8503123;27;20197;-65
2021/12/07 16:37:26;;;;;;;40.80;18.27;;;-0.50;99.90;;;;;;8492386;27;20489;-67
2021/12/07 16:41:28;;;;;;;43.57;19.17;;;-0.50;99.90;;;;;;8469812;27;20183;-67
2021/12/07 16:45:36;;;;;;;38.27;18.90;;;-0.50;99.90;;;;;;8469414;27;20177;-67
2021/12/07 16:49:37;;;;;;;31.73;15.97;;;-0.50;99.90;;;;;;8486997;27;20190;-66
2021/12/07 16:53:39;;;;;;;34.07;15.93;;;-0.50;99.90;;;;;;8467838;27;20215;-67
2021/12/07 16:57:41;;;;;;;35.67;16.53;;;-0.50;99.90;;;;;;8466725;27;20300;-68
2021/12/07 17:01:42;;;;;;;45.13;19.27;;;-0.50;99.90;;;;;;8504434;27;20203;-67
2021/12/07 17:05:46;;;;;;;51.40;20.80;;;-0.40;99.90;;;;;;8468712;27;20245;-67
2021/12/07 17:09:47;;;;;;;35.93;16.47;;;-0.50;99.90;;;;;;8486553;27;20190;-66
2021/12/07 17:13:49;;;;;;;53.10;22.13;;;-0.50;99.90;;;;;;8468602;27;20183;-67
2021/12/07 17:17:50;;;;;;;63.77;25.37;;;-0.50;99.90;;;;;;8484989;27;20204;-67
2021/12/07 17:21:51;;;;;;;52.20;21.13;;;-0.50;99.90;;;;;;8467362;27;20181;-66
2021/12/07 17:25:52;;;;;;;56.83;22.93;;;-0.60;99.90;;;;;;8493629;27;20208;-66
2021/12/07 17:29:54;;;;;;;47.47;20.50;;;-0.60;99.90;;;;;;8502254;27;20194;-70
2021/12/07 17:33:55;;;;;;;42.50;18.17;;;-0.60;99.90;;;;;;8469767;27;20208;-67
2021/12/07 17:37:56;;;;;;;33.83;16.60;;;-0.60;99.90;;;;;;8466916;27;20216;-65
2021/12/07 17:41:57;;;;;;;37.97;17.27;;;-0.60;99.90;;;;;;8484259;27;20172;-66
2021/12/07 17:45:58;;;;;;;37.40;17.40;;;-0.60;99.90;;;;;;8467326;27;20256;-68
2021/12/07 17:50:00;;;;;;;33.17;16.73;;;-0.70;99.90;;;;;;8466843;27;20216;-68
2021/12/07 17:54:04;;;;;;;33.57;16.23;;;-0.80;99.90;;;;;;8493371;27;20255;-66
2021/12/07 17:58:05;;;;;;;32.97;15.30;;;-0.90;99.90;;;;;;8476324;27;20200;-67
2021/12/07 18:02:07;;;;;;;42.80;17.97;;;-1.10;99.90;;;;;;8476447;27;20171;-66
2021/12/07 18:06:08;;;;;;;35.40;16.67;;;-1.20;99.90;;;;;;8466209;27;20184;-65
2021/12/07 18:10:12;;;;;;;45.30;17.77;;;-1.40;99.90;;;;;;8466803;27;20435;-69
2021/12/07 18:14:15;;;;;;;42.53;18.13;;;-1.50;99.90;;;;;;8465053;27;20175;-67
2021/12/07 18:18:16;;;;;;;47.23;20.10;;;-1.70;99.90;;;;;;8465892;27;20191;-68
2021/12/07 18:22:17;;;;;;;44.03;21.73;;;-1.70;99.90;;;;;;8485643;27;20206;-67
2021/12/07 18:26:18;;;;;;;37.80;18.20;;;-1.80;99.90;;;;;;8492713;27;20276;-68
2021/12/07 18:30:23;;;;;;;38.63;17.53;;;-1.80;99.90;;;;;;8500592;27;20227;-67
2021/12/07 18:34:24;;;;;;;40.77;16.03;;;-1.90;99.90;;;;;;8492620;27;20265;-65
2021/12/07 18:38:30;;;;;;;44.73;20.03;;;-1.90;99.90;;;;;;8481582;27;20209;-67
2021/12/07 18:42:33;;;;;;;39.00;17.50;;;-1.80;99.90;;;;;;8483020;27;20202;-66
2021/12/07 18:46:35;;;;;;;43.97;19.07;;;-1.80;99.90;;;;;;8484498;27;20175;-67
2021/12/07 18:50:40;;;;;;;46.00;17.87;;;-1.80;99.90;;;;;;8465111;27;20183;-66
2021/12/07 18:54:42;;;;;;;41.37;18.27;;;-1.70;99.90;;;;;;8472196;27;20179;-69
2021/12/07 18:58:44;;;;;;;39.03;19.23;;;-1.70;99.90;;;;;;8489923;27;20438;-66
2021/12/07 19:02:47;;;;;;;45.57;19.53;;;-1.60;99.90;;;;;;8501642;27;20182;-66
2021/12/07 19:06:50;;;;;;;38.00;16.47;;;-1.50;99.90;;;;;;8483573;28;20167;-68
2021/12/07 19:10:52;;;;;;;34.80;17.23;;;-1.40;99.90;;;;;;8464136;28;20184;-68
2021/12/07 19:14:54;;;;;;;40.00;18.83;;;-1.30;99.90;;;;;;8498480;27;20206;-67
2021/12/07 19:18:55;;;;;;;37.40;18.00;;;-1.20;99.90;;;;;;8515371;27;20471;-67
2021/12/07 19:22:58;;;;;;;43.60;17.97;;;-1.20;99.90;;;;;;8482670;27;20203;-66
2021/12/07 19:27:02;;;;;;;44.87;20.10;;;-1.10;99.90;;;;;;8502661;27;20174;-67
2021/12/07 19:31:03;;;;;;;36.20;18.20;;;-1.00;99.90;;;;;;8470997;27;20184;-66
2021/12/07 19:35:06;;;;;;;39.83;18.27;;;-1.00;99.90;;;;;;8476202;27;20212;-68
2021/12/07 19:39:07;;;;;;;39.03;18.40;;;-0.90;99.90;;;;;;8470335;27;20208;-68
2021/12/07 19:43:09;;;;;;;43.63;19.43;;;-0.90;99.90;;;;;;8456664;27;20191;-66
2021/12/07 19:47:11;;;;;;;36.40;18.33;;;-0.90;99.90;;;;;;8471386;27;20211;-66
2021/12/07 19:51:18;;;;;;;39.77;18.50;;;-0.90;99.90;;;;;;8489696;27;20184;-66
2021/12/07 19:55:22;;;;;;;40.90;18.57;;;-0.80;99.90;;;;;;8471810;27;20208;-66
2021/12/07 19:59:28;;;;;;;36.13;16.23;;;-0.80;99.90;;;;;;8480773;27;20249;-66
2021/12/07 20:03:29;;;;;;;35.40;17.87;;;-0.90;99.90;;;;;;8483120;27;20510;-66
2021/12/07 20:07:30;;;;;;;45.00;19.53;;;-1.00;99.90;;;;;;8489631;27;20172;-67
2021/12/07 20:11:36;;;;;;;40.70;18.57;;;-1.00;99.90;;;;;;8469988;27;20187;-66
2021/12/07 20:15:37;;;;;;;36.03;16.47;;;-1.00;99.90;;;;;;8487381;27;20202;-66
2021/12/07 20:19:39;;;;;;;35.50;16.23;;;-1.00;99.90;;;;;;8469737;27;20171;-69
2021/12/07 20:23:46;;;;;;;36.10;16.43;;;-1.00;99.90;;;;;;8469751;27;20203;-66
2021/12/07 20:27:47;;;;;;;38.07;17.40;;;-1.10;99.90;;;;;;8481650;27;20176;-67
2021/12/07 20:31:49;;;;;;;37.33;16.90;;;-1.10;99.90;;;;;;8475886;27;20194;-69
2021/12/07 20:35:50;;;;;;;36.53;17.03;;;-1.00;99.90;;;;;;8469066;27;20216;-68
2021/12/07 20:39:50;;;;;;;37.17;19.67;;;-1.00;99.90;;;;;;8453004;28;20288;-67
2021/12/07 20:43:57;;;;;;;37.57;17.17;;;-0.90;99.90;;;;;;8468082;27;20179;-66
2021/12/07 20:47:58;;;;;;;42.23;18.93;;;-1.00;99.90;;;;;;8469665;27;20183;-67
2021/12/07 20:52:02;;;;;;;41.63;20.20;;;-1.00;99.90;;;;;;8468390;27;20199;-67
2021/12/07 20:56:05;;;;;;;32.70;17.87;;;-1.00;99.90;;;;;;8498960;27;20206;-69
2021/12/07 21:00:10;;;;;;;35.77;17.17;;;-1.00;99.90;;;;;;8476573;27;20212;-69
2021/12/07 21:04:12;;;;;;;31.77;15.80;;;-1.10;99.90;;;;;;8467978;27;20189;-67
2021/12/07 21:08:13;;;;;;;44.27;23.93;;;-1.10;99.90;;;;;;8466947;27;20194;-67
2021/12/07 21:12:14;;;;;;;33.33;16.60;;;-1.20;99.90;;;;;;8468726;27;20186;-69
2021/12/07 21:16:15;;;;;;;36.50;16.67;;;-1.20;99.90;;;;;;8467258;27;20227;-69
2021/12/07 21:20:16;;;;;;;35.70;18.17;;;-1.20;99.90;;;;;;8462391;27;20186;-68
2021/12/07 21:24:17;;;;;;;31.17;16.37;;;-1.20;99.90;;;;;;8486222;27;20278;-65
2021/12/07 21:28:18;;;;;;;41.27;20.47;;;-1.20;99.90;;;;;;8500341;27;20270;-65
2021/12/07 21:32:19;;;;;;;39.50;21.83;;;-1.20;99.90;;;;;;8472940;27;20262;-66
2021/12/07 21:36:20;;;;;;;30.60;17.27;;;-1.20;99.90;;;;;;8467046;27;20208;-67
2021/12/07 21:40:24;;;;;;;53.83;24.43;;;-1.20;99.90;;;;;;8466327;27;20180;-66
2021/12/07 21:44:26;;;;;;;43.53;20.53;;;-1.20;99.90;;;;;;8497138;27;20170;-66
2021/12/07 21:48:27;;;;;;;40.10;19.63;;;-1.20;99.90;;;;;;8477183;27;20188;-67
2021/12/07 21:52:29;;;;;;;44.43;20.03;;;-1.20;99.90;;;;;;8485584;27;20333;-67
2021/12/07 21:56:31;;;;;;;34.70;17.40;;;-1.20;99.90;;;;;;8456909;27;20242;-68
2021/12/07 22:00:36;;;;;;;34.13;15.10;;;-1.20;99.90;;;;;;8471676;27;20242;-69
2021/12/07 22:04:40;;;;;;;31.60;15.63;;;-1.20;99.90;;;;;;8475143;27;20231;-68
2021/12/07 22:08:41;;;;;;;34.80;16.80;;;-1.20;99.90;;;;;;8485150;27;20219;-65
2021/12/07 22:12:41;;;;;;;29.57;15.27;;;-1.20;99.90;;;;;;8484003;27;20187;-70
2021/12/07 22:16:42;;;;;;;29.53;16.60;;;-1.20;99.90;;;;;;8489076;27;20227;-68